sensor_id;sensor_type;location;lat;lon;timestamp;temperature;humidity
29539;DHT22;16482;51.046;4.498;2023-07-24T00:00:09;25.60;55.90
29539;DHT22;16482;51.046;4.498;2023-07-24T00:02:37;25.60;55.80
29539;DHT22;16482;51.046;4.498;2023-07-24T00:05:04;25.60;55.90
29539;DHT22;16482;51.046;4.498;2023-07-24T00:07:39;25.50;55.90
29539;DHT22;16482;51.046;4.498;2023-07-24T00:10:08;25.60;55.90
29539;DHT22;16482;51.046;4.498;2023-07-24T00:12:34;25.60;55.90
29539;DHT22;16482;51.046;4.498;2023-07-24T00:15:00;25.60;56.00
29539;DHT22;16482;51.046;4.498;2023-07-24T00:17:25;25.60;55.90
29539;DHT22;16482;51.046;4.498;2023-07-24T00:19:51;25.60;55.90
29539;DHT22;16482;51.046;4.498;2023-07-24T00:22:17;25.60;55.90
29539;DHT22;16482;51.046;4.498;2023-07-24T00:24:43;25.60;56.00
29539;DHT22;16482;51.046;4.498;2023-07-24T00:27:09;25.60;55.90
29539;DHT22;16482;51.046;4.498;2023-07-24T00:29:35;25.60;56.60
29539;DHT22;16482;51.046;4.498;2023-07-24T00:32:01;25.60;55.90
29539;DHT22;16482;51.046;4.498;2023-07-24T00:34:27;25.50;55.90
29539;DHT22;16482;51.046;4.498;2023-07-24T00:36:53;25.60;55.90
29539;DHT22;16482;51.046;4.498;2023-07-24T00:39:19;25.60;56.00
29539;DHT22;16482;51.046;4.498;2023-07-24T00:41:45;25.60;56.00
29539;DHT22;16482;51.046;4.498;2023-07-24T00:44:13;25.60;56.10
29539;DHT22;16482;51.046;4.498;2023-07-24T00:46:42;25.50;56.00
29539;DHT22;16482;51.046;4.498;2023-07-24T00:49:08;25.60;56.10
29539;DHT22;16482;51.046;4.498;2023-07-24T00:51:34;25.60;56.10
29539;DHT22;16482;51.046;4.498;2023-07-24T00:54:02;25.60;56.10
29539;DHT22;16482;51.046;4.498;2023-07-24T00:56:29;25.60;56.10
29539;DHT22;16482;51.046;4.498;2023-07-24T00:58:56;25.50;55.90
29539;DHT22;16482;51.046;4.498;2023-07-24T01:01:23;25.60;56.70
29539;DHT22;16482;51.046;4.498;2023-07-24T01:03:49;25.60;56.00
29539;DHT22;16482;51.046;4.498;2023-07-24T01:06:15;25.50;56.00
29539;DHT22;16482;51.046;4.498;2023-07-24T01:08:41;25.60;56.10
29539;DHT22;16482;51.046;4.498;2023-07-24T01:11:21;25.60;56.00
29539;DHT22;16482;51.046;4.498;2023-07-24T01:14:13;25.60;55.90
29539;DHT22;16482;51.046;4.498;2023-07-24T01:16:40;25.60;55.90
29539;DHT22;16482;51.046;4.498;2023-07-24T01:19:23;25.60;56.20
29539;DHT22;16482;51.046;4.498;2023-07-24T01:24:59;25.50;56.00
29539;DHT22;16482;51.046;4.498;2023-07-24T01:27:27;25.60;56.10
29539;DHT22;16482;51.046;4.498;2023-07-24T01:29:53;25.50;56.00
29539;DHT22;16482;51.046;4.498;2023-07-24T01:32:19;25.50;56.10
29539;DHT22;16482;51.046;4.498;2023-07-24T01:34:46;25.50;56.10
29539;DHT22;16482;51.046;4.498;2023-07-24T01:37:12;25.60;56.10
29539;DHT22;16482;51.046;4.498;2023-07-24T01:39:40;25.50;56.10
29539;DHT22;16482;51.046;4.498;2023-07-24T01:42:08;25.50;56.20
29539;DHT22;16482;51.046;4.498;2023-07-24T01:44:34;25.50;56.10
29539;DHT22;16482;51.046;4.498;2023-07-24T01:47:00;25.50;56.20
29539;DHT22;16482;51.046;4.498;2023-07-24T01:49:26;25.50;56.20
29539;DHT22;16482;51.046;4.498;2023-07-24T01:51:52;25.50;56.20
29539;DHT22;16482;51.046;4.498;2023-07-24T01:54:20;25.50;56.20
29539;DHT22;16482;51.046;4.498;2023-07-24T01:56:46;25.50;56.20
29539;DHT22;16482;51.046;4.498;2023-07-24T01:59:11;25.50;56.30
29539;DHT22;16482;51.046;4.498;2023-07-24T02:01:37;25.50;56.20
29539;DHT22;16482;51.046;4.498;2023-07-24T02:04:03;25.50;56.30
29539;DHT22;16482;51.046;4.498;2023-07-24T02:06:29;25.50;56.20
29539;DHT22;16482;51.046;4.498;2023-07-24T02:08:55;25.50;56.10
29539;DHT22;16482;51.046;4.498;2023-07-24T02:11:21;25.50;56.20
29539;DHT22;16482;51.046;4.498;2023-07-24T02:13:47;25.50;56.00
29539;DHT22;16482;51.046;4.498;2023-07-24T02:16:13;25.50;56.10
29539;DHT22;16482;51.046;4.498;2023-07-24T02:18:41;25.50;56.00
29539;DHT22;16482;51.046;4.498;2023-07-24T02:21:08;25.50;56.00
29539;DHT22;16482;51.046;4.498;2023-07-24T02:23:33;25.50;55.90
29539;DHT22;16482;51.046;4.498;2023-07-24T02:26:00;25.50;55.90
29539;DHT22;16482;51.046;4.498;2023-07-24T02:28:26;25.50;55.90
29539;DHT22;16482;51.046;4.498;2023-07-24T02:30:54;25.50;55.90
29539;DHT22;16482;51.046;4.498;2023-07-24T02:33:30;25.50;55.90
29539;DHT22;16482;51.046;4.498;2023-07-24T02:35:56;25.40;55.80
29539;DHT22;16482;51.046;4.498;2023-07-24T02:38:25;25.40;55.90
29539;DHT22;16482;51.046;4.498;2023-07-24T02:40:51;25.40;55.80
29539;DHT22;16482;51.046;4.498;2023-07-24T02:43:17;25.50;55.70
29539;DHT22;16482;51.046;4.498;2023-07-24T02:45:43;25.40;55.60
29539;DHT22;16482;51.046;4.498;2023-07-24T02:48:09;25.40;55.60
29539;DHT22;16482;51.046;4.498;2023-07-24T02:50:35;25.40;55.50
29539;DHT22;16482;51.046;4.498;2023-07-24T02:53:01;25.40;55.50
29539;DHT22;16482;51.046;4.498;2023-07-24T02:55:27;25.40;55.40
29539;DHT22;16482;51.046;4.498;2023-07-24T02:57:53;25.40;55.40
29539;DHT22;16482;51.046;4.498;2023-07-24T03:00:19;25.40;55.30
29539;DHT22;16482;51.046;4.498;2023-07-24T03:02:45;25.40;55.30
29539;DHT22;16482;51.046;4.498;2023-07-24T03:05:11;25.40;55.30
29539;DHT22;16482;51.046;4.498;2023-07-24T03:07:37;25.40;55.40
29539;DHT22;16482;51.046;4.498;2023-07-24T03:10:03;25.40;55.30
29539;DHT22;16482;51.046;4.498;2023-07-24T03:12:29;25.40;55.30
29539;DHT22;16482;51.046;4.498;2023-07-24T03:14:55;25.40;55.20
29539;DHT22;16482;51.046;4.498;2023-07-24T03:17:22;25.40;55.20
29539;DHT22;16482;51.046;4.498;2023-07-24T03:19:48;25.40;55.20
29539;DHT22;16482;51.046;4.498;2023-07-24T03:22:15;25.40;55.10
29539;DHT22;16482;51.046;4.498;2023-07-24T03:24:40;25.40;55.20
29539;DHT22;16482;51.046;4.498;2023-07-24T03:27:06;25.40;55.20
29539;DHT22;16482;51.046;4.498;2023-07-24T03:29:32;25.40;55.20
29539;DHT22;16482;51.046;4.498;2023-07-24T03:31:58;25.40;55.20
29539;DHT22;16482;51.046;4.498;2023-07-24T03:34:24;25.40;55.10
29539;DHT22;16482;51.046;4.498;2023-07-24T03:36:50;25.40;55.00
29539;DHT22;16482;51.046;4.498;2023-07-24T03:39:25;25.40;55.00
29539;DHT22;16482;51.046;4.498;2023-07-24T03:41:51;25.40;54.90
29539;DHT22;16482;51.046;4.498;2023-07-24T03:44:17;25.50;55.00
29539;DHT22;16482;51.046;4.498;2023-07-24T03:46:43;25.40;54.80
29539;DHT22;16482;51.046;4.498;2023-07-24T03:49:09;25.50;54.80
29539;DHT22;16482;51.046;4.498;2023-07-24T03:51:35;25.50;54.70
29539;DHT22;16482;51.046;4.498;2023-07-24T03:54:00;25.50;54.70
29539;DHT22;16482;51.046;4.498;2023-07-24T03:56:26;25.50;54.70
29539;DHT22;16482;51.046;4.498;2023-07-24T03:58:52;25.40;54.60
29539;DHT22;16482;51.046;4.498;2023-07-24T04:01:18;25.50;54.60
29539;DHT22;16482;51.046;4.498;2023-07-24T04:03:45;25.40;54.50
29539;DHT22;16482;51.046;4.498;2023-07-24T04:06:11;25.50;54.50
29539;DHT22;16482;51.046;4.498;2023-07-24T04:08:37;25.50;54.50
29539;DHT22;16482;51.046;4.498;2023-07-24T04:11:02;25.50;54.40
29539;DHT22;16482;51.046;4.498;2023-07-24T04:13:33;25.50;54.40
29539;DHT22;16482;51.046;4.498;2023-07-24T04:16:02;25.50;54.40
29539;DHT22;16482;51.046;4.498;2023-07-24T04:18:31;25.50;54.30
29539;DHT22;16482;51.046;4.498;2023-07-24T04:21:01;25.50;54.30
29539;DHT22;16482;51.046;4.498;2023-07-24T04:23:27;25.40;54.30
29539;DHT22;16482;51.046;4.498;2023-07-24T04:25:56;25.50;54.30
29539;DHT22;16482;51.046;4.498;2023-07-24T04:28:31;25.50;54.30
29539;DHT22;16482;51.046;4.498;2023-07-24T04:31:02;25.50;54.20
29539;DHT22;16482;51.046;4.498;2023-07-24T04:33:32;25.50;54.10
29539;DHT22;16482;51.046;4.498;2023-07-24T04:36:01;25.50;54.20
29539;DHT22;16482;51.046;4.498;2023-07-24T04:38:30;25.50;54.10
29539;DHT22;16482;51.046;4.498;2023-07-24T04:40:56;25.50;54.00
29539;DHT22;16482;51.046;4.498;2023-07-24T04:43:30;25.40;53.90
29539;DHT22;16482;51.046;4.498;2023-07-24T04:46:02;25.40;54.00
29539;DHT22;16482;51.046;4.498;2023-07-24T04:48:31;25.40;53.80
29539;DHT22;16482;51.046;4.498;2023-07-24T04:51:00;25.50;53.90
29539;DHT22;16482;51.046;4.498;2023-07-24T04:53:28;25.40;53.80
29539;DHT22;16482;51.046;4.498;2023-07-24T04:55:54;25.50;53.80
29539;DHT22;16482;51.046;4.498;2023-07-24T04:58:31;25.50;53.80
29539;DHT22;16482;51.046;4.498;2023-07-24T05:01:05;25.40;53.70
29539;DHT22;16482;51.046;4.498;2023-07-24T05:03:31;25.40;53.70
29539;DHT22;16482;51.046;4.498;2023-07-24T05:06:00;25.50;53.70
29539;DHT22;16482;51.046;4.498;2023-07-24T05:08:26;25.50;53.70
29539;DHT22;16482;51.046;4.498;2023-07-24T05:10:56;25.40;53.60
29539;DHT22;16482;51.046;4.498;2023-07-24T05:13:26;25.50;53.60
29539;DHT22;16482;51.046;4.498;2023-07-24T05:15:51;25.50;53.60
29539;DHT22;16482;51.046;4.498;2023-07-24T05:18:17;25.50;53.70
29539;DHT22;16482;51.046;4.498;2023-07-24T05:20:48;25.40;53.70
29539;DHT22;16482;51.046;4.498;2023-07-24T05:23:14;25.40;53.60
29539;DHT22;16482;51.046;4.498;2023-07-24T05:25:40;25.50;53.70
29539;DHT22;16482;51.046;4.498;2023-07-24T05:28:06;25.50;53.70
29539;DHT22;16482;51.046;4.498;2023-07-24T05:30:33;25.40;53.70
29539;DHT22;16482;51.046;4.498;2023-07-24T05:32:58;25.50;53.70
29539;DHT22;16482;51.046;4.498;2023-07-24T05:35:24;25.50;53.70
29539;DHT22;16482;51.046;4.498;2023-07-24T05:37:50;25.40;53.60
29539;DHT22;16482;51.046;4.498;2023-07-24T05:40:16;25.50;53.70
29539;DHT22;16482;51.046;4.498;2023-07-24T05:42:42;25.40;53.70
29539;DHT22;16482;51.046;4.498;2023-07-24T05:45:09;25.50;53.70
29539;DHT22;16482;51.046;4.498;2023-07-24T05:47:40;25.50;53.60
29539;DHT22;16482;51.046;4.498;2023-07-24T05:50:06;25.50;53.70
29539;DHT22;16482;51.046;4.498;2023-07-24T05:52:39;25.40;53.70
29539;DHT22;16482;51.046;4.498;2023-07-24T05:55:06;25.40;53.70
29539;DHT22;16482;51.046;4.498;2023-07-24T05:57:32;25.40;53.70
29539;DHT22;16482;51.046;4.498;2023-07-24T05:59:58;25.40;53.70
29539;DHT22;16482;51.046;4.498;2023-07-24T06:02:23;25.40;53.70
29539;DHT22;16482;51.046;4.498;2023-07-24T06:04:49;25.40;53.70
29539;DHT22;16482;51.046;4.498;2023-07-24T06:07:15;25.50;53.70
29539;DHT22;16482;51.046;4.498;2023-07-24T06:09:43;25.40;53.70
29539;DHT22;16482;51.046;4.498;2023-07-24T06:12:09;25.50;53.70
29539;DHT22;16482;51.046;4.498;2023-07-24T06:14:35;25.40;53.70
29539;DHT22;16482;51.046;4.498;2023-07-24T06:17:01;25.40;53.70
29539;DHT22;16482;51.046;4.498;2023-07-24T06:19:27;25.40;53.70
29539;DHT22;16482;51.046;4.498;2023-07-24T06:21:53;25.40;53.70
29539;DHT22;16482;51.046;4.498;2023-07-24T06:24:19;25.40;53.70
29539;DHT22;16482;51.046;4.498;2023-07-24T06:26:46;25.40;53.70
29539;DHT22;16482;51.046;4.498;2023-07-24T06:29:21;25.50;53.80
29539;DHT22;16482;51.046;4.498;2023-07-24T06:31:55;25.50;53.80
29539;DHT22;16482;51.046;4.498;2023-07-24T06:34:23;25.40;53.70
29539;DHT22;16482;51.046;4.498;2023-07-24T06:36:51;25.40;53.70
29539;DHT22;16482;51.046;4.498;2023-07-24T06:39:17;25.40;53.80
29539;DHT22;16482;51.046;4.498;2023-07-24T06:41:43;25.30;53.90
29539;DHT22;16482;51.046;4.498;2023-07-24T06:44:09;25.40;54.00
29539;DHT22;16482;51.046;4.498;2023-07-24T06:46:34;25.40;53.90
29539;DHT22;16482;51.046;4.498;2023-07-24T06:49:00;25.40;53.90
29539;DHT22;16482;51.046;4.498;2023-07-24T06:51:26;25.40;53.90
29539;DHT22;16482;51.046;4.498;2023-07-24T06:53:52;25.40;53.80
29539;DHT22;16482;51.046;4.498;2023-07-24T06:56:18;25.40;53.80
29539;DHT22;16482;51.046;4.498;2023-07-24T06:58:44;25.40;53.70
29539;DHT22;16482;51.046;4.498;2023-07-24T07:01:10;25.50;53.90
29539;DHT22;16482;51.046;4.498;2023-07-24T07:03:36;25.50;53.90
29539;DHT22;16482;51.046;4.498;2023-07-24T07:06:02;25.50;53.80
29539;DHT22;16482;51.046;4.498;2023-07-24T07:08:31;25.50;53.80
29539;DHT22;16482;51.046;4.498;2023-07-24T07:11:02;25.50;53.90
29539;DHT22;16482;51.046;4.498;2023-07-24T07:13:28;25.50;53.80
29539;DHT22;16482;51.046;4.498;2023-07-24T07:16:02;25.50;53.80
29539;DHT22;16482;51.046;4.498;2023-07-24T07:18:30;25.60;53.90
29539;DHT22;16482;51.046;4.498;2023-07-24T07:20:56;25.50;53.80
29539;DHT22;16482;51.046;4.498;2023-07-24T07:23:31;25.50;53.90
29539;DHT22;16482;51.046;4.498;2023-07-24T07:25:57;25.50;53.90
29539;DHT22;16482;51.046;4.498;2023-07-24T07:28:31;25.50;54.00
29539;DHT22;16482;51.046;4.498;2023-07-24T07:31:02;25.50;54.00
29539;DHT22;16482;51.046;4.498;2023-07-24T07:33:30;25.40;53.80
29539;DHT22;16482;51.046;4.498;2023-07-24T07:35:56;25.50;53.80
29539;DHT22;16482;51.046;4.498;2023-07-24T07:38:31;25.60;53.90
29539;DHT22;16482;51.046;4.498;2023-07-24T07:40:57;25.60;53.90
29539;DHT22;16482;51.046;4.498;2023-07-24T07:43:26;25.60;53.70
29539;DHT22;16482;51.046;4.498;2023-07-24T07:46:01;25.60;53.70
29539;DHT22;16482;51.046;4.498;2023-07-24T07:48:27;25.60;53.50
29539;DHT22;16482;51.046;4.498;2023-07-24T07:51:01;25.70;53.50
29539;DHT22;16482;51.046;4.498;2023-07-24T07:53:27;25.80;54.00
29539;DHT22;16482;51.046;4.498;2023-07-24T07:56:02;25.80;53.20
29539;DHT22;16482;51.046;4.498;2023-07-24T07:58:31;25.80;53.10
29539;DHT22;16482;51.046;4.498;2023-07-24T08:00:56;25.90;53.00
29539;DHT22;16482;51.046;4.498;2023-07-24T08:03:32;25.80;53.00
29539;DHT22;16482;51.046;4.498;2023-07-24T08:06:02;25.90;53.00
29539;DHT22;16482;51.046;4.498;2023-07-24T08:08:31;25.90;52.80
29539;DHT22;16482;51.046;4.498;2023-07-24T08:10:57;25.90;52.90
29539;DHT22;16482;51.046;4.498;2023-07-24T08:13:23;26.00;52.90
29539;DHT22;16482;51.046;4.498;2023-07-24T08:15:49;25.90;52.80
29539;DHT22;16482;51.046;4.498;2023-07-24T08:18:15;25.90;52.70
29539;DHT22;16482;51.046;4.498;2023-07-24T08:20:41;25.90;52.80
29539;DHT22;16482;51.046;4.498;2023-07-24T08:23:07;25.90;52.80
29539;DHT22;16482;51.046;4.498;2023-07-24T08:25:33;25.90;52.80
29539;DHT22;16482;51.046;4.498;2023-07-24T08:27:59;26.00;52.80
29539;DHT22;16482;51.046;4.498;2023-07-24T08:30:25;25.90;52.80
29539;DHT22;16482;51.046;4.498;2023-07-24T08:32:51;25.90;52.80
29539;DHT22;16482;51.046;4.498;2023-07-24T08:35:19;26.00;52.90
29539;DHT22;16482;51.046;4.498;2023-07-24T08:37:45;25.90;52.80
29539;DHT22;16482;51.046;4.498;2023-07-24T08:40:11;25.90;52.90
29539;DHT22;16482;51.046;4.498;2023-07-24T08:42:43;25.90;52.90
29539;DHT22;16482;51.046;4.498;2023-07-24T08:45:12;25.90;53.00
29539;DHT22;16482;51.046;4.498;2023-07-24T08:47:42;25.90;53.00
29539;DHT22;16482;51.046;4.498;2023-07-24T08:50:12;25.90;52.80
29539;DHT22;16482;51.046;4.498;2023-07-24T08:52:41;25.90;52.70
29539;DHT22;16482;51.046;4.498;2023-07-24T08:55:12;26.00;52.80
29539;DHT22;16482;51.046;4.498;2023-07-24T08:57:41;26.00;52.80
29539;DHT22;16482;51.046;4.498;2023-07-24T09:00:11;25.90;52.80
29539;DHT22;16482;51.046;4.498;2023-07-24T09:02:37;25.90;52.80
29539;DHT22;16482;51.046;4.498;2023-07-24T09:05:12;26.00;52.90
29539;DHT22;16482;51.046;4.498;2023-07-24T09:07:42;25.90;52.90
29539;DHT22;16482;51.046;4.498;2023-07-24T09:10:13;25.90;52.90
29539;DHT22;16482;51.046;4.498;2023-07-24T09:12:41;25.90;52.80
29539;DHT22;16482;51.046;4.498;2023-07-24T09:15:08;25.80;52.70
29539;DHT22;16482;51.046;4.498;2023-07-24T09:17:47;25.80;52.70
29539;DHT22;16482;51.046;4.498;2023-07-24T09:20:14;25.80;52.70
29539;DHT22;16482;51.046;4.498;2023-07-24T09:22:50;25.80;52.80
29539;DHT22;16482;51.046;4.498;2023-07-24T09:25:30;25.80;52.70
29539;DHT22;16482;51.046;4.498;2023-07-24T09:27:58;25.80;52.60
29539;DHT22;16482;51.046;4.498;2023-07-24T09:30:24;25.80;52.60
29539;DHT22;16482;51.046;4.498;2023-07-24T09:32:53;25.80;52.70
29539;DHT22;16482;51.046;4.498;2023-07-24T09:35:21;25.80;52.60
29539;DHT22;16482;51.046;4.498;2023-07-24T09:38:05;25.80;52.60
29539;DHT22;16482;51.046;4.498;2023-07-24T09:40:38;25.80;52.50
29539;DHT22;16482;51.046;4.498;2023-07-24T09:43:15;25.80;52.50
29539;DHT22;16482;51.046;4.498;2023-07-24T09:45:43;25.80;52.50
29539;DHT22;16482;51.046;4.498;2023-07-24T09:48:12;25.80;52.50
29539;DHT22;16482;51.046;4.498;2023-07-24T09:50:40;25.70;52.30
29539;DHT22;16482;51.046;4.498;2023-07-24T09:53:24;25.80;52.40
29539;DHT22;16482;51.046;4.498;2023-07-24T09:56:06;25.80;52.30
29539;DHT22;16482;51.046;4.498;2023-07-24T09:58:39;25.70;52.10
29539;DHT22;16482;51.046;4.498;2023-07-24T10:01:09;25.70;52.10
29539;DHT22;16482;51.046;4.498;2023-07-24T10:03:40;25.70;52.00
29539;DHT22;16482;51.046;4.498;2023-07-24T10:06:08;25.80;52.10
29539;DHT22;16482;51.046;4.498;2023-07-24T10:08:40;25.80;52.10
29539;DHT22;16482;51.046;4.498;2023-07-24T10:11:15;25.70;52.10
29539;DHT22;16482;51.046;4.498;2023-07-24T10:13:42;25.70;52.00
29539;DHT22;16482;51.046;4.498;2023-07-24T10:16:08;25.60;52.00
29539;DHT22;16482;51.046;4.498;2023-07-24T10:18:35;25.70;52.10
29539;DHT22;16482;51.046;4.498;2023-07-24T10:21:09;25.60;52.00
29539;DHT22;16482;51.046;4.498;2023-07-24T10:23:36;25.60;52.00
29539;DHT22;16482;51.046;4.498;2023-07-24T10:26:06;25.70;52.10
29539;DHT22;16482;51.046;4.498;2023-07-24T10:28:35;25.70;52.10
29539;DHT22;16482;51.046;4.498;2023-07-24T10:31:21;25.70;52.10
29539;DHT22;16482;51.046;4.498;2023-07-24T10:33:48;25.70;52.00
29539;DHT22;16482;51.046;4.498;2023-07-24T10:36:17;25.70;52.10
29539;DHT22;16482;51.046;4.498;2023-07-24T10:38:46;25.70;52.00
29539;DHT22;16482;51.046;4.498;2023-07-24T10:41:12;25.80;52.10
29539;DHT22;16482;51.046;4.498;2023-07-24T10:43:52;25.80;52.10
29539;DHT22;16482;51.046;4.498;2023-07-24T10:46:19;25.80;52.10
29539;DHT22;16482;51.046;4.498;2023-07-24T10:48:50;25.70;52.10
29539;DHT22;16482;51.046;4.498;2023-07-24T10:51:16;25.80;52.20
29539;DHT22;16482;51.046;4.498;2023-07-24T10:53:45;25.80;52.40
29539;DHT22;16482;51.046;4.498;2023-07-24T10:56:11;25.70;52.30
29539;DHT22;16482;51.046;4.498;2023-07-24T10:58:40;25.80;52.50
29539;DHT22;16482;51.046;4.498;2023-07-24T11:01:06;25.80;52.30
29539;DHT22;16482;51.046;4.498;2023-07-24T11:03:35;25.80;52.20
29539;DHT22;16482;51.046;4.498;2023-07-24T11:06:02;25.80;52.20
29539;DHT22;16482;51.046;4.498;2023-07-24T11:08:32;25.80;52.20
29539;DHT22;16482;51.046;4.498;2023-07-24T11:11:02;25.80;52.20
29539;DHT22;16482;51.046;4.498;2023-07-24T11:13:32;25.80;52.20
29539;DHT22;16482;51.046;4.498;2023-07-24T11:16:05;25.80;52.30
29539;DHT22;16482;51.046;4.498;2023-07-24T11:18:44;25.80;52.20
29539;DHT22;16482;51.046;4.498;2023-07-24T11:21:12;25.90;52.30
29539;DHT22;16482;51.046;4.498;2023-07-24T11:23:45;25.80;52.40
29539;DHT22;16482;51.046;4.498;2023-07-24T11:26:11;25.80;52.30
29539;DHT22;16482;51.046;4.498;2023-07-24T11:28:40;25.80;52.40
29539;DHT22;16482;51.046;4.498;2023-07-24T11:31:07;25.80;52.30
29539;DHT22;16482;51.046;4.498;2023-07-24T11:33:36;25.80;52.40
29539;DHT22;16482;51.046;4.498;2023-07-24T11:36:02;25.80;52.30
29539;DHT22;16482;51.046;4.498;2023-07-24T11:38:31;25.90;52.40
29539;DHT22;16482;51.046;4.498;2023-07-24T11:41:04;25.80;52.30
29539;DHT22;16482;51.046;4.498;2023-07-24T11:43:33;25.80;52.20
29539;DHT22;16482;51.046;4.498;2023-07-24T11:46:01;25.80;52.20
29539;DHT22;16482;51.046;4.498;2023-07-24T11:48:27;25.90;52.20
29539;DHT22;16482;51.046;4.498;2023-07-24T11:50:56;25.90;52.40
29539;DHT22;16482;51.046;4.498;2023-07-24T11:53:28;25.90;52.30
29539;DHT22;16482;51.046;4.498;2023-07-24T11:56:12;26.00;52.40
29539;DHT22;16482;51.046;4.498;2023-07-24T11:58:38;26.00;52.40
29539;DHT22;16482;51.046;4.498;2023-07-24T12:01:04;26.00;52.50
29539;DHT22;16482;51.046;4.498;2023-07-24T12:03:30;26.00;52.50
29539;DHT22;16482;51.046;4.498;2023-07-24T12:05:56;26.10;52.60
29539;DHT22;16482;51.046;4.498;2023-07-24T12:08:35;26.00;52.40
29539;DHT22;16482;51.046;4.498;2023-07-24T12:11:03;26.00;52.40
29539;DHT22;16482;51.046;4.498;2023-07-24T12:13:32;26.10;52.60
29539;DHT22;16482;51.046;4.498;2023-07-24T12:15:58;26.00;52.50
29539;DHT22;16482;51.046;4.498;2023-07-24T12:18:27;26.00;52.60
29539;DHT22;16482;51.046;4.498;2023-07-24T12:20:53;26.00;52.60
29539;DHT22;16482;51.046;4.498;2023-07-24T12:23:19;26.10;52.50
29539;DHT22;16482;51.046;4.498;2023-07-24T12:25:45;26.10;52.60
29539;DHT22;16482;51.046;4.498;2023-07-24T12:28:13;26.00;52.70
29539;DHT22;16482;51.046;4.498;2023-07-24T12:30:39;26.00;52.60
29539;DHT22;16482;51.046;4.498;2023-07-24T12:33:05;26.10;52.60
29539;DHT22;16482;51.046;4.498;2023-07-24T12:35:31;26.10;52.50
29539;DHT22;16482;51.046;4.498;2023-07-24T12:37:57;26.10;52.50
29539;DHT22;16482;51.046;4.498;2023-07-24T12:40:23;26.10;52.40
29539;DHT22;16482;51.046;4.498;2023-07-24T12:42:49;26.10;52.40
29539;DHT22;16482;51.046;4.498;2023-07-24T12:45:15;26.10;52.40
29539;DHT22;16482;51.046;4.498;2023-07-24T12:47:43;26.10;52.30
29539;DHT22;16482;51.046;4.498;2023-07-24T12:50:11;26.10;52.20
29539;DHT22;16482;51.046;4.498;2023-07-24T12:52:37;26.10;52.30
29539;DHT22;16482;51.046;4.498;2023-07-24T12:55:04;26.00;52.30
29539;DHT22;16482;51.046;4.498;2023-07-24T12:57:30;26.00;52.30
29539;DHT22;16482;51.046;4.498;2023-07-24T12:59:56;26.00;52.10
29539;DHT22;16482;51.046;4.498;2023-07-24T13:02:25;26.00;51.80
29539;DHT22;16482;51.046;4.498;2023-07-24T13:04:52;26.10;51.90
29539;DHT22;16482;51.046;4.498;2023-07-24T13:07:18;26.10;52.00
29539;DHT22;16482;51.046;4.498;2023-07-24T13:09:44;26.10;51.90
29539;DHT22;16482;51.046;4.498;2023-07-24T13:12:10;26.10;51.80
29539;DHT22;16482;51.046;4.498;2023-07-24T13:14:36;26.10;51.90
29539;DHT22;16482;51.046;4.498;2023-07-24T13:17:02;26.10;51.80
29539;DHT22;16482;51.046;4.498;2023-07-24T13:19:28;26.10;51.60
29539;DHT22;16482;51.046;4.498;2023-07-24T13:21:56;26.10;51.40
29539;DHT22;16482;51.046;4.498;2023-07-24T13:24:22;26.10;51.20
29539;DHT22;16482;51.046;4.498;2023-07-24T13:26:56;26.10;51.30
29539;DHT22;16482;51.046;4.498;2023-07-24T13:29:24;26.10;50.90
29539;DHT22;16482;51.046;4.498;2023-07-24T13:31:53;26.10;50.90
29539;DHT22;16482;51.046;4.498;2023-07-24T13:34:23;26.10;50.80
29539;DHT22;16482;51.046;4.498;2023-07-24T13:36:56;26.10;50.50
29539;DHT22;16482;51.046;4.498;2023-07-24T13:39:22;26.10;50.60
29539;DHT22;16482;51.046;4.498;2023-07-24T13:41:53;26.10;50.70
29539;DHT22;16482;51.046;4.498;2023-07-24T13:44:22;26.10;50.60
29539;DHT22;16482;51.046;4.498;2023-07-24T13:46:53;26.10;50.50
29539;DHT22;16482;51.046;4.498;2023-07-24T13:49:26;26.00;50.40
29539;DHT22;16482;51.046;4.498;2023-07-24T13:51:52;26.00;50.50
29539;DHT22;16482;51.046;4.498;2023-07-24T13:54:18;26.00;50.60
29539;DHT22;16482;51.046;4.498;2023-07-24T13:56:44;25.90;50.40
29539;DHT22;16482;51.046;4.498;2023-07-24T13:59:10;26.00;50.40
29539;DHT22;16482;51.046;4.498;2023-07-24T14:01:38;25.90;50.40
29539;DHT22;16482;51.046;4.498;2023-07-24T14:04:04;25.90;50.30
29539;DHT22;16482;51.046;4.498;2023-07-24T14:06:30;25.90;50.50
29539;DHT22;16482;51.046;4.498;2023-07-24T14:08:56;25.90;50.60
29539;DHT22;16482;51.046;4.498;2023-07-24T14:11:22;25.90;50.70
29539;DHT22;16482;51.046;4.498;2023-07-24T14:13:48;25.80;50.80
29539;DHT22;16482;51.046;4.498;2023-07-24T14:16:14;25.80;51.50
29539;DHT22;16482;51.046;4.498;2023-07-24T14:18:40;25.80;51.00
29539;DHT22;16482;51.046;4.498;2023-07-24T14:21:06;25.80;51.20
29539;DHT22;16482;51.046;4.498;2023-07-24T14:23:31;25.80;51.20
29539;DHT22;16482;51.046;4.498;2023-07-24T14:25:57;25.80;51.20
29539;DHT22;16482;51.046;4.498;2023-07-24T14:28:23;25.80;51.30
29539;DHT22;16482;51.046;4.498;2023-07-24T14:30:49;25.80;51.30
29539;DHT22;16482;51.046;4.498;2023-07-24T14:33:15;25.80;51.40
29539;DHT22;16482;51.046;4.498;2023-07-24T14:35:41;25.70;51.40
29539;DHT22;16482;51.046;4.498;2023-07-24T14:38:07;25.70;51.40
29539;DHT22;16482;51.046;4.498;2023-07-24T14:40:33;25.80;51.60
29539;DHT22;16482;51.046;4.498;2023-07-24T14:42:59;25.80;51.60
29539;DHT22;16482;51.046;4.498;2023-07-24T14:45:24;25.80;51.60
29539;DHT22;16482;51.046;4.498;2023-07-24T14:47:51;25.80;51.80
29539;DHT22;16482;51.046;4.498;2023-07-24T14:50:17;25.80;51.80
29539;DHT22;16482;51.046;4.498;2023-07-24T14:52:43;26.00;51.80
29539;DHT22;16482;51.046;4.498;2023-07-24T14:55:11;25.90;51.80
29539;DHT22;16482;51.046;4.498;2023-07-24T14:57:37;25.90;51.80
29539;DHT22;16482;51.046;4.498;2023-07-24T15:00:15;25.90;51.80
29539;DHT22;16482;51.046;4.498;2023-07-24T15:02:41;25.90;51.90
29539;DHT22;16482;51.046;4.498;2023-07-24T15:05:10;25.90;51.90
29539;DHT22;16482;51.046;4.498;2023-07-24T15:07:36;26.00;51.80
29539;DHT22;16482;51.046;4.498;2023-07-24T15:10:02;26.00;51.90
29539;DHT22;16482;51.046;4.498;2023-07-24T15:12:28;26.00;51.90
29539;DHT22;16482;51.046;4.498;2023-07-24T15:14:57;25.90;51.90
29539;DHT22;16482;51.046;4.498;2023-07-24T15:17:23;26.00;52.00
29539;DHT22;16482;51.046;4.498;2023-07-24T15:19:49;26.00;52.00
29539;DHT22;16482;51.046;4.498;2023-07-24T15:22:15;26.00;52.10
29539;DHT22;16482;51.046;4.498;2023-07-24T15:24:41;26.00;52.10
29539;DHT22;16482;51.046;4.498;2023-07-24T15:27:07;26.00;52.10
29539;DHT22;16482;51.046;4.498;2023-07-24T15:29:36;26.10;52.20
29539;DHT22;16482;51.046;4.498;2023-07-24T15:32:02;26.00;52.20
29539;DHT22;16482;51.046;4.498;2023-07-24T15:34:29;26.10;52.10
29539;DHT22;16482;51.046;4.498;2023-07-24T15:36:55;26.10;52.00